createdAt,value
2023-05-14T00:00:19.255Z,100767.00
2023-05-14T00:02:47.429Z,100767.91
2023-05-14T00:05:15.561Z,100770.50
2023-05-14T00:07:43.611Z,100761.78
2023-05-14T00:10:12.089Z,100754.91
2023-05-14T00:12:40.190Z,100754.06
2023-05-14T00:15:09.322Z,100751.47
2023-05-14T00:17:39.583Z,100750.59
2023-05-14T00:20:08.441Z,100750.63
2023-05-14T00:22:37.334Z,100752.38
2023-05-14T00:25:06.029Z,100747.19
2023-05-14T00:27:34.101Z,100748.13
2023-05-14T00:30:02.291Z,100749.03
2023-05-14T00:32:30.298Z,100742.03
2023-05-14T00:34:59.815Z,100748.09
2023-05-14T00:37:27.908Z,100745.50
2023-05-14T00:39:56.073Z,100743.75
2023-05-14T00:42:24.102Z,100737.69
2023-05-14T00:44:52.212Z,100736.88
2023-05-14T00:47:20.948Z,100732.53
2023-05-14T00:49:49.287Z,100722.09
2023-05-14T00:52:19.788Z,100720.41
2023-05-14T00:54:49.206Z,100732.56
2023-05-14T00:57:17.941Z,100728.19
2023-05-14T00:59:46.282Z,100732.50
2023-05-14T01:02:14.268Z,100722.09
2023-05-14T01:04:42.709Z,100714.28
2023-05-14T01:07:18.018Z,100705.63
2023-05-14T01:09:54.764Z,100705.66
2023-05-14T01:12:31.018Z,100714.38
2023-05-14T01:15:07.387Z,100709.97
2023-05-14T01:17:42.470Z,100705.63
2023-05-14T01:20:11.488Z,100688.28
2023-05-14T01:22:40.845Z,100703.06
2023-05-14T01:25:09.807Z,100699.59
2023-05-14T01:27:48.516Z,100690.91
2023-05-14T01:30:22.849Z,100685.75
2023-05-14T01:32:54.493Z,100681.41
2023-05-14T01:35:26.478Z,100684.91
2023-05-14T01:37:57.795Z,100679.69
2023-05-14T01:40:26.853Z,100690.13
2023-05-14T01:42:56.499Z,100684.88
2023-05-14T01:45:25.174Z,100676.16
2023-05-14T01:47:53.573Z,100686.56
2023-05-14T01:50:21.867Z,100684.78
2023-05-14T01:52:53.303Z,100677.88
2023-05-14T01:55:23.825Z,100680.50
2023-05-14T01:57:52.282Z,100680.56
2023-05-14T02:00:21.047Z,100681.44
2023-05-14T02:02:49.184Z,100672.75
2023-05-14T02:05:18.171Z,100670.13
2023-05-14T02:07:46.304Z,100667.50
2023-05-14T02:10:14.806Z,100664.00
2023-05-14T02:12:44.171Z,100668.31
2023-05-14T02:15:12.564Z,100656.94
2023-05-14T02:17:40.557Z,100659.50
2023-05-14T02:20:10.277Z,100656.03
2023-05-14T02:22:38.863Z,100653.47
2023-05-14T02:25:07.786Z,100655.22
2023-05-14T02:27:35.856Z,100656.09
2023-05-14T02:30:06.226Z,100646.59
2023-05-14T02:32:34.515Z,100647.50
2023-05-14T02:35:03.413Z,100656.13
2023-05-14T02:37:31.533Z,100644.81
2023-05-14T02:39:59.860Z,100646.56
2023-05-14T02:42:28.108Z,100648.31
2023-05-14T02:44:56.157Z,100650.88
2023-05-14T02:47:25.665Z,100638.66
2023-05-14T02:49:53.854Z,100643.88
2023-05-14T02:52:21.989Z,100643.00
2023-05-14T02:54:50.167Z,100643.81
2023-05-14T02:57:18.268Z,100649.88
2023-05-14T02:59:46.357Z,100651.59
2023-05-14T03:02:14.919Z,100643.72
2023-05-14T03:04:44.909Z,100646.31
2023-05-14T03:07:13.707Z,100646.34
2023-05-14T03:09:41.805Z,100638.59
2023-05-14T03:12:09.966Z,100631.66
2023-05-14T03:14:38.041Z,100635.09
2023-05-14T03:17:06.742Z,100635.97
2023-05-14T03:19:34.867Z,100638.56
2023-05-14T03:22:04.634Z,100636.81
2023-05-14T03:24:32.661Z,100634.19
2023-05-14T03:27:00.804Z,100630.75
2023-05-14T03:29:28.898Z,100634.22
2023-05-14T03:31:57.110Z,100623.81
2023-05-14T03:34:25.456Z,100631.66
2023-05-14T03:36:53.645Z,100620.38
2023-05-14T03:39:23.007Z,100610.88
2023-05-14T03:41:51.379Z,100610.00
2023-05-14T03:44:19.465Z,100604.75
2023-05-14T03:46:47.567Z,100601.25
2023-05-14T03:49:15.722Z,100600.41
2023-05-14T03:51:43.898Z,100603.03
2023-05-14T03:54:11.965Z,100591.78
2023-05-14T03:56:41.376Z,100597.00
2023-05-14T03:59:10.007Z,100587.41
2023-05-14T04:01:38.148Z,100591.75
2023-05-14T04:04:06.595Z,100585.69
2023-05-14T04:06:35.146Z,100587.44
2023-05-14T04:09:03.759Z,100574.38
2023-05-14T04:11:31.901Z,100584.78
2023-05-14T04:14:02.405Z,100588.31
2023-05-14T04:16:31.137Z,100583.16
2023-05-14T04:18:59.323Z,100572.69
2023-05-14T04:21:27.549Z,100578.72
2023-05-14T04:23:55.615Z,100580.50
2023-05-14T04:26:23.756Z,100574.47
2023-05-14T04:28:52.185Z,100570.16
2023-05-14T04:31:21.600Z,100571.88
2023-05-14T04:33:49.666Z,100560.59
2023-05-14T04:36:17.836Z,100563.19
2023-05-14T04:38:45.878Z,100568.38
2023-05-14T04:41:13.965Z,100559.69
2023-05-14T04:43:42.031Z,100570.09
2023-05-14T04:46:10.456Z,100564.88
2023-05-14T04:48:39.850Z,100568.38
2023-05-14T04:51:08.151Z,100564.00
2023-05-14T04:53:36.182Z,100559.63
2023-05-14T04:56:04.299Z,100558.72
2023-05-14T04:58:34.567Z,100550.94
2023-05-14T05:01:03.958Z,100547.47
2023-05-14T05:03:32.322Z,100545.75
2023-05-14T05:06:01.926Z,100549.19
2023-05-14T05:08:29.962Z,100541.38
2023-05-14T05:10:58.034Z,100546.66
2023-05-14T05:13:26.115Z,100548.41
2023-05-14T05:15:54.273Z,100555.34
2023-05-14T05:18:22.296Z,100547.56
2023-05-14T05:20:50.409Z,100554.50
2023-05-14T05:23:20.142Z,100550.16
2023-05-14T05:25:48.299Z,100556.25
2023-05-14T05:28:16.336Z,100557.97
2023-05-14T05:30:45.206Z,100551.84
2023-05-14T05:33:13.351Z,100545.75
2023-05-14T05:35:41.936Z,100543.13
2023-05-14T05:38:10.033Z,100548.28
2023-05-14T05:40:39.516Z,100542.13
2023-05-14T05:43:07.616Z,100542.97
2023-05-14T05:45:35.732Z,100545.56
2023-05-14T05:48:03.903Z,100535.09
2023-05-14T05:50:32.790Z,100539.44
2023-05-14T05:53:00.949Z,100547.22
2023-05-14T05:55:29.714Z,100543.69
2023-05-14T05:57:59.060Z,100548.00
2023-05-14T06:00:27.350Z,100535.75
2023-05-14T06:02:56.288Z,100526.13
2023-05-14T06:05:24.932Z,100527.78
2023-05-14T06:07:54.287Z,100526.88
2023-05-14T06:10:22.678Z,100525.94
2023-05-14T06:12:50.928Z,100528.47
2023-05-14T06:15:20.647Z,100529.34
2023-05-14T06:17:48.724Z,100524.06
2023-05-14T06:20:17.131Z,100524.00
2023-05-14T06:22:45.201Z,100518.75
2023-05-14T06:25:13.328Z,100516.94
2023-05-14T06:27:41.532Z,100518.66
2023-05-14T06:30:11.049Z,100523.03
2023-05-14T06:32:40.490Z,100516.00
2023-05-14T06:35:09.459Z,100514.09
2023-05-14T06:37:37.505Z,100508.78
2023-05-14T06:40:06.489Z,100520.00
2023-05-14T06:42:34.556Z,100505.94
2023-05-14T06:45:02.990Z,100504.91
2023-05-14T06:47:31.081Z,100515.16
2023-05-14T06:50:01.905Z,100524.47
2023-05-14T06:52:30.117Z,100520.84
2023-05-14T06:54:58.205Z,100513.88
2023-05-14T06:57:26.654Z,100529.44
2023-05-14T06:59:54.714Z,100512.72
2023-05-14T07:02:22.827Z,100512.53
2023-05-14T07:04:50.995Z,100519.41
2023-05-14T07:07:21.272Z,100511.31
2023-05-14T07:09:49.284Z,100512.00
2023-05-14T07:12:17.453Z,100518.88
2023-05-14T07:14:46.710Z,100505.00
2023-05-14T07:17:14.915Z,100507.44
2023-05-14T07:19:42.992Z,100510.69
2023-05-14T07:22:11.187Z,100513.06
2023-05-14T07:24:40.550Z,100508.47
2023-05-14T07:27:09.070Z,100509.22
2023-05-14T07:29:37.184Z,100504.81
2023-05-14T07:32:05.782Z,100508.97
2023-05-14T07:34:33.909Z,100499.22
2023-05-14T07:37:02.398Z,100500.88
2023-05-14T07:39:30.613Z,100495.47
2023-05-14T07:42:00.386Z,100496.09
2023-05-14T07:44:28.883Z,100492.41
2023-05-14T07:46:57.079Z,100493.16
2023-05-14T07:49:25.176Z,100487.66
2023-05-14T07:51:53.398Z,100483.94
2023-05-14T07:54:21.556Z,100484.63
2023-05-14T07:56:49.734Z,100486.22
2023-05-14T07:59:19.296Z,100475.47
2023-05-14T08:01:47.526Z,100479.59
2023-05-14T08:04:16.387Z,100475.91
2023-05-14T08:06:44.681Z,100478.38
2023-05-14T08:09:12.814Z,100472.88
2023-05-14T08:11:40.941Z,100468.16
2023-05-14T08:14:09.033Z,100473.06
2023-05-14T08:16:38.758Z,100471.09
2023-05-14T08:19:06.991Z,100462.22
2023-05-14T08:21:35.152Z,100462.94
2023-05-14T08:24:03.288Z,100468.00
2023-05-14T08:26:31.375Z,100465.25
2023-05-14T08:28:59.399Z,100469.31
2023-05-14T08:31:27.520Z,100464.63
2023-05-14T08:33:56.985Z,100462.53
2023-05-14T08:36:25.112Z,100459.75
2023-05-14T08:38:53.140Z,100454.22
2023-05-14T08:41:21.785Z,100459.03
2023-05-14T08:43:58.889Z,100455.97
2023-05-14T08:46:31.036Z,100449.53
2023-05-14T08:49:08.928Z,100452.81
2023-05-14T08:51:37.489Z,100449.03
2023-05-14T08:54:06.750Z,100443.56
2023-05-14T08:56:34.986Z,100439.00
2023-05-14T08:59:02.985Z,100441.81
2023-05-14T09:01:31.586Z,100442.91
2023-05-14T09:04:07.128Z,100438.94
2023-05-14T09:06:38.720Z,100440.66
2023-05-14T09:09:07.124Z,100433.41
2023-05-14T09:11:35.149Z,100433.09
2023-05-14T09:14:04.188Z,100431.44
2023-05-14T09:16:32.426Z,100425.28
2023-05-14T09:19:02.127Z,100414.38
2023-05-14T09:21:32.897Z,100419.25
2023-05-14T09:24:01.955Z,100418.94
2023-05-14T09:26:34.077Z,100408.38
2023-05-14T09:29:03.964Z,100406.56
2023-05-14T09:31:33.895Z,100406.03
2023-05-14T09:34:04.537Z,100410.16
2023-05-14T09:36:35.859Z,100400.69
2023-05-14T09:39:05.769Z,100397.41
2023-05-14T09:41:33.938Z,100397.59
2023-05-14T09:44:03.334Z,100397.75
2023-05-14T09:46:32.423Z,100396.31
2023-05-14T09:49:00.589Z,100390.94
2023-05-14T09:51:32.001Z,100393.22
2023-05-14T09:54:00.205Z,100392.16
2023-05-14T09:56:28.342Z,100384.34
2023-05-14T09:58:56.487Z,100389.63
2023-05-14T10:01:25.759Z,100378.81
2023-05-14T10:03:55.956Z,100373.00
2023-05-14T10:06:26.882Z,100380.16
2023-05-14T10:09:01.749Z,100381.59
2023-05-14T10:11:33.812Z,100381.81
2023-05-14T10:14:05.203Z,100387.34
2023-05-14T10:16:36.377Z,100382.97
2023-05-14T10:19:10.768Z,100378.47
2023-05-14T10:21:41.354Z,100367.53
2023-05-14T10:24:12.754Z,100380.53
2023-05-14T10:26:42.145Z,100371.19
2023-05-14T10:29:11.473Z,100375.16
2023-05-14T10:31:58.113Z,100367.66
2023-05-14T10:34:51.013Z,100377.59
2023-05-14T10:37:21.827Z,100374.31
2023-05-14T10:39:53.697Z,100379.41
2023-05-14T10:42:24.001Z,100368.16
2023-05-14T10:44:55.514Z,100356.34
2023-05-14T10:47:24.055Z,100363.59
2023-05-14T10:49:55.250Z,100361.88
2023-05-14T10:52:24.120Z,100350.47
2023-05-14T10:54:57.051Z,100341.34
2023-05-14T10:57:27.972Z,100331.44
2023-05-14T10:59:57.479Z,100329.13
2023-05-14T11:02:27.328Z,100322.13
2023-05-14T11:04:59.235Z,100319.75
2023-05-14T11:07:30.677Z,100316.75
2023-05-14T11:10:03.793Z,100309.03
2023-05-14T11:12:32.374Z,100313.72
2023-05-14T11:15:02.127Z,100308.81
2023-05-14T11:17:32.275Z,100314.38
2023-05-14T11:20:01.901Z,100320.03
2023-05-14T11:22:30.175Z,100314.97
2023-05-14T11:24:58.502Z,100316.19
2023-05-14T11:27:28.265Z,100316.03
2023-05-14T11:29:58.078Z,100311.47
2023-05-14T11:32:27.211Z,100317.50
2023-05-14T11:34:56.020Z,100309.09
2023-05-14T11:37:24.367Z,100306.94
2023-05-14T11:39:53.956Z,100310.09
2023-05-14T11:42:23.892Z,100303.50
2023-05-14T11:44:54.957Z,100313.97
2023-05-14T11:47:23.732Z,100308.63
2023-05-14T11:49:51.842Z,100304.25
2023-05-14T11:52:21.978Z,100308.19
2023-05-14T11:54:50.995Z,100314.34
2023-05-14T11:57:21.002Z,100303.69
2023-05-14T11:59:49.990Z,100297.03
2023-05-14T12:02:20.575Z,100298.06
2023-05-14T12:04:52.223Z,100282.44
2023-05-14T12:07:20.391Z,100290.75
2023-05-14T12:09:50.104Z,100286.53
2023-05-14T12:12:19.940Z,100278.25
2023-05-14T12:14:48.574Z,100275.84
2023-05-14T12:17:19.485Z,100280.75
2023-05-14T12:19:49.335Z,100275.06
2023-05-14T12:22:19.563Z,100275.59
2023-05-14T12:24:54.922Z,100266.69
2023-05-14T12:27:24.537Z,100261.78
2023-05-14T12:30:09.094Z,100267.09
2023-05-14T12:32:40.979Z,100257.25
2023-05-14T12:35:09.968Z,100257.81
2023-05-14T12:37:40.035Z,100251.50
2023-05-14T12:40:10.261Z,100246.72
2023-05-14T12:42:38.523Z,100253.31
2023-05-14T12:45:08.725Z,100252.25
2023-05-14T12:47:38.474Z,100256.38
2023-05-14T12:50:07.534Z,100247.94
2023-05-14T12:52:39.403Z,100248.25
2023-05-14T12:55:11.993Z,100250.94
2023-05-14T12:57:40.385Z,100255.41
2023-05-14T13:00:21.589Z,100247.09
2023-05-14T13:02:51.122Z,100250.66
2023-05-14T13:05:19.384Z,100259.09
2023-05-14T13:07:47.612Z,100259.72
2023-05-14T13:10:18.336Z,100257.34
2023-05-14T13:12:46.784Z,100253.53
2023-05-14T13:15:14.943Z,100247.91
2023-05-14T13:17:43.119Z,100237.47
2023-05-14T13:20:12.877Z,100224.03
2023-05-14T13:22:41.136Z,100225.03
2023-05-14T13:25:09.974Z,100219.97
2023-05-14T13:27:38.099Z,100220.75
2023-05-14T13:30:06.867Z,100218.13
2023-05-14T13:32:35.037Z,100216.88
2023-05-14T13:35:03.094Z,100209.50
2023-05-14T13:37:32.629Z,100202.41
2023-05-14T13:40:00.705Z,100199.53
2023-05-14T13:42:28.860Z,100192.75
2023-05-14T13:44:56.948Z,100184.81
2023-05-14T13:47:25.077Z,100186.63
2023-05-14T13:49:53.421Z,100178.75
2023-05-14T13:52:21.732Z,100169.84
2023-05-14T13:54:51.281Z,100167.31
2023-05-14T13:57:19.463Z,100171.91
2023-05-14T13:59:48.061Z,100171.31
2023-05-14T14:02:16.375Z,100177.28
2023-05-14T14:04:44.562Z,100173.75
2023-05-14T14:07:12.779Z,100175.94
2023-05-14T14:09:40.787Z,100161.59
2023-05-14T14:12:11.028Z,100156.47
2023-05-14T14:14:39.226Z,100161.06
2023-05-14T14:17:09.040Z,100154.25
2023-05-14T14:19:37.196Z,100148.06
2023-05-14T14:22:05.467Z,100142.81
2023-05-14T14:24:33.558Z,100148.03
2023-05-14T14:27:02.428Z,100139.50
2023-05-14T14:29:32.154Z,100135.41
2023-05-14T14:32:00.755Z,100141.25
2023-05-14T14:34:28.952Z,100144.75
2023-05-14T14:36:56.988Z,100128.69
2023-05-14T14:39:26.566Z,100128.94
2023-05-14T14:41:54.753Z,100129.47
2023-05-14T14:44:22.902Z,100123.88
2023-05-14T14:46:52.262Z,100123.44
2023-05-14T14:49:20.364Z,100110.38
2023-05-14T14:51:48.577Z,100107.59
2023-05-14T14:54:16.783Z,100112.69
2023-05-14T14:56:45.962Z,100118.50
2023-05-14T14:59:14.086Z,100106.34
2023-05-14T15:01:42.325Z,100114.16
2023-05-14T15:04:11.858Z,100104.41
2023-05-14T15:06:40.004Z,100103.41
2023-05-14T15:09:09.244Z,100107.59
2023-05-14T15:11:37.824Z,100115.91
2023-05-14T15:14:06.177Z,100102.72
2023-05-14T15:16:34.534Z,100108.94
2023-05-14T15:19:03.058Z,100109.72
2023-05-14T15:21:32.708Z,100107.91
2023-05-14T15:24:01.047Z,100106.31
2023-05-14T15:26:29.210Z,100100.34
2023-05-14T15:28:58.665Z,100102.47
2023-05-14T15:31:27.039Z,100097.03
2023-05-14T15:33:56.055Z,100100.03
2023-05-14T15:36:24.243Z,100099.28
2023-05-14T15:38:53.656Z,100097.13
2023-05-14T15:41:22.740Z,100089.00
2023-05-14T15:43:50.725Z,100091.78
2023-05-14T15:46:19.041Z,100085.41
2023-05-14T15:48:47.084Z,100081.47
2023-05-14T15:51:15.224Z,100086.16
2023-05-14T15:53:43.363Z,100089.22
2023-05-14T15:56:12.806Z,100090.94
2023-05-14T15:58:40.978Z,100085.41
2023-05-14T16:01:09.040Z,100089.09
2023-05-14T16:03:37.174Z,100088.56
2023-05-14T16:06:05.868Z,100086.56
2023-05-14T16:08:33.960Z,100092.09
2023-05-14T16:11:02.356Z,100088.78
2023-05-14T16:13:31.835Z,100088.38
2023-05-14T16:16:01.303Z,100086.69
2023-05-14T16:18:29.660Z,100081.88
2023-05-14T16:20:58.007Z,100093.06
2023-05-14T16:23:26.304Z,100087.94
2023-05-14T16:25:54.535Z,100086.22
2023-05-14T16:28:22.715Z,100084.53
2023-05-14T16:30:52.375Z,100074.63
2023-05-14T16:33:20.538Z,100077.94
2023-05-14T16:35:48.614Z,100076.44
2023-05-14T16:38:16.634Z,100075.81
2023-05-14T16:40:44.801Z,100078.56
2023-05-14T16:43:12.923Z,100072.50
2023-05-14T16:45:41.609Z,100072.91
2023-05-14T16:48:10.998Z,100077.09
2023-05-14T16:50:39.175Z,100081.13
2023-05-14T16:53:07.223Z,100066.19
2023-05-14T16:55:35.523Z,100072.72
2023-05-14T16:58:03.554Z,100077.25
2023-05-14T17:00:31.666Z,100082.50
2023-05-14T17:03:00.004Z,100080.66
2023-05-14T17:05:29.903Z,100074.84
2023-05-14T17:07:58.054Z,100085.03
2023-05-14T17:10:26.410Z,100075.94
2023-05-14T17:12:54.481Z,100070.06
2023-05-14T17:15:22.726Z,100069.63
2023-05-14T17:17:50.990Z,100075.97
2023-05-14T17:20:19.062Z,100071.81
2023-05-14T17:22:48.539Z,100075.84
2023-05-14T17:25:16.871Z,100065.69
2023-05-14T17:27:44.979Z,100063.97
2023-05-14T17:30:13.654Z,100072.41
2023-05-14T17:32:41.820Z,100067.63
2023-05-14T17:35:11.752Z,100058.69
2023-05-14T17:37:42.738Z,100064.78
2023-05-14T17:40:13.303Z,100067.25
2023-05-14T17:42:41.394Z,100060.84
2023-05-14T17:45:10.136Z,100064.75
2023-05-14T17:47:38.332Z,100059.41
2023-05-14T17:50:07.315Z,100064.94
2023-05-14T17:52:35.718Z,100064.63
2023-05-14T17:55:04.091Z,100063.75
2023-05-14T17:57:33.655Z,100065.66
2023-05-14T18:00:01.959Z,100065.69
2023-05-14T18:02:31.031Z,100062.31
2023-05-14T18:05:00.596Z,100071.88
2023-05-14T18:07:29.117Z,100066.59
2023-05-14T18:09:57.191Z,100068.88
2023-05-14T18:12:26.785Z,100069.19
2023-05-14T18:14:56.291Z,100068.44
2023-05-14T18:17:24.469Z,100065.91
2023-05-14T18:19:52.631Z,100072.84
2023-05-14T18:22:21.641Z,100077.00
2023-05-14T18:24:49.748Z,100078.41
2023-05-14T18:27:17.842Z,100085.09
2023-05-14T18:29:46.009Z,100077.69
2023-05-14T18:32:15.438Z,100075.72
2023-05-14T18:34:43.658Z,100079.19
2023-05-14T18:37:11.840Z,100080.75
2023-05-14T18:39:39.931Z,100074.28
2023-05-14T18:42:08.190Z,100086.16
2023-05-14T18:44:36.353Z,100080.25
2023-05-14T18:47:04.570Z,100081.38
2023-05-14T18:49:34.289Z,100076.41
2023-05-14T18:52:02.431Z,100086.41
2023-05-14T18:54:31.140Z,100077.84
2023-05-14T18:56:59.278Z,100070.97
2023-05-14T18:59:27.486Z,100074.56
2023-05-14T19:01:55.723Z,100077.56
2023-05-14T19:04:24.475Z,100073.41
2023-05-14T19:06:54.230Z,100072.88
2023-05-14T19:09:22.418Z,100079.19
2023-05-14T19:11:50.502Z,100082.00
2023-05-14T19:14:18.678Z,100082.25
2023-05-14T19:16:47.773Z,100087.03
2023-05-14T19:19:16.234Z,100090.94
2023-05-14T19:21:44.286Z,100092.97
2023-05-14T19:24:13.934Z,100095.03
2023-05-14T19:26:42.209Z,100096.88
2023-05-14T19:29:10.721Z,100096.19
2023-05-14T19:31:38.799Z,100093.78
2023-05-14T19:34:07.466Z,100101.09
2023-05-14T19:36:35.529Z,100099.56
2023-05-14T19:39:03.915Z,100109.63
2023-05-14T19:41:35.406Z,100107.38
2023-05-14T19:44:03.656Z,100111.09
2023-05-14T19:46:31.753Z,100115.94
2023-05-14T19:48:59.906Z,100114.44
2023-05-14T19:51:28.080Z,100117.50
2023-05-14T19:53:56.269Z,100117.94
2023-05-14T19:56:26.465Z,100112.94
2023-05-14T19:58:56.802Z,100119.97
2023-05-14T20:01:25.161Z,100116.66
2023-05-14T20:03:53.418Z,100116.00
2023-05-14T20:06:21.605Z,100121.47
2023-05-14T20:08:51.335Z,100120.66
2023-05-14T20:11:19.688Z,100119.88
2023-05-14T20:13:47.980Z,100122.69
2023-05-14T20:16:17.601Z,100123.78
2023-05-14T20:18:46.199Z,100126.69
2023-05-14T20:21:14.326Z,100125.28
2023-05-14T20:23:42.550Z,100125.38
2023-05-14T20:26:10.695Z,100131.63
2023-05-14T20:28:38.823Z,100136.16
2023-05-14T20:31:06.923Z,100135.38
2023-05-14T20:33:36.374Z,100129.31
2023-05-14T20:36:05.279Z,100136.59
2023-05-14T20:38:35.019Z,100136.03
2023-05-14T20:41:03.449Z,100137.28
2023-05-14T20:43:31.576Z,100143.00
2023-05-14T20:46:00.508Z,100139.72
2023-05-14T20:48:29.439Z,100145.28
2023-05-14T20:50:58.796Z,100146.47
2023-05-14T20:53:28.325Z,100147.75
2023-05-14T20:55:57.018Z,100153.25
2023-05-14T20:58:25.189Z,100144.69
2023-05-14T21:00:53.277Z,100149.38
2023-05-14T21:03:21.654Z,100149.56
2023-05-14T21:05:49.978Z,100153.25
2023-05-14T21:08:19.439Z,100154.34
2023-05-14T21:10:47.477Z,100158.88
2023-05-14T21:13:15.533Z,100163.28
2023-05-14T21:15:43.681Z,100160.81
2023-05-14T21:18:12.314Z,100156.47
2023-05-14T21:20:40.842Z,100167.91
2023-05-14T21:23:09.025Z,100164.50
2023-05-14T21:25:38.596Z,100158.53
2023-05-14T21:28:06.727Z,100155.13
2023-05-14T21:30:34.780Z,100153.41
2023-05-14T21:33:03.186Z,100163.09
2023-05-14T21:35:31.544Z,100154.34
2023-05-14T21:37:59.709Z,100165.69
2023-05-14T21:40:27.803Z,100157.75
2023-05-14T21:42:57.237Z,100160.41
2023-05-14T21:45:25.653Z,100164.03
2023-05-14T21:47:54.011Z,100162.34
2023-05-14T21:50:22.209Z,100159.03
2023-05-14T21:52:50.603Z,100157.47
2023-05-14T21:55:18.840Z,100166.16
2023-05-14T21:57:47.075Z,100151.91
2023-05-14T22:00:23.350Z,100150.13
2023-05-14T22:02:52.901Z,100146.66
2023-05-14T22:05:21.287Z,100142.34
2023-05-14T22:07:50.184Z,100152.03
2023-05-14T22:10:18.236Z,100150.31
2023-05-14T22:12:46.974Z,100152.19
2023-05-14T22:15:16.285Z,100149.66
2023-05-14T22:17:44.460Z,100149.59
2023-05-14T22:20:12.684Z,100157.47
2023-05-14T22:22:40.814Z,100150.47
2023-05-14T22:25:09.485Z,100155.59
2023-05-14T22:27:37.748Z,100148.59
2023-05-14T22:30:06.564Z,100146.91
2023-05-14T22:32:35.950Z,100144.34
2023-05-14T22:35:04.390Z,100149.66
2023-05-14T22:37:32.495Z,100141.75
2023-05-14T22:40:02.146Z,100141.75
2023-05-14T22:42:30.213Z,100139.00
2023-05-14T22:44:58.371Z,100139.91
2023-05-14T22:47:26.545Z,100140.84
2023-05-14T22:49:55.927Z,100143.47
2023-05-14T22:52:23.984Z,100143.59
2023-05-14T22:54:52.246Z,100142.66
2023-05-14T22:57:20.514Z,100140.28
2023-05-14T22:59:48.754Z,100149.25
2023-05-14T23:02:16.970Z,100152.94
2023-05-14T23:04:45.098Z,100156.69
2023-05-14T23:07:14.522Z,100156.03
2023-05-14T23:09:42.576Z,100157.91
2023-05-14T23:12:10.916Z,100158.06
2023-05-14T23:14:38.985Z,100166.06
2023-05-14T23:17:07.216Z,100159.19
2023-05-14T23:19:35.562Z,100155.94
2023-05-14T23:22:03.806Z,100160.44
2023-05-14T23:24:33.163Z,100161.53
2023-05-14T23:27:01.304Z,100169.66
2023-05-14T23:29:29.424Z,100171.44
2023-05-14T23:31:57.570Z,100178.66
2023-05-14T23:34:25.677Z,100181.38
2023-05-14T23:36:54.118Z,100180.66
2023-05-14T23:39:22.754Z,100188.63
2023-05-14T23:41:52.438Z,100179.03
2023-05-14T23:44:20.522Z,100195.78
2023-05-14T23:46:48.869Z,100198.53
2023-05-14T23:49:16.970Z,100196.94
2023-05-14T23:51:45.096Z,100191.97
2023-05-14T23:54:13.151Z,100192.28
2023-05-14T23:56:41.811Z,100202.38
2023-05-14T23:59:11.769Z,100191.53
